createdAt,value
2017-11-12T00:00:32.310Z,21.03
2017-11-12T00:02:59.916Z,18.73
2017-11-12T00:05:28.298Z,16.30
2017-11-12T00:07:55.924Z,15.13
2017-11-12T00:10:23.515Z,16.67
2017-11-12T00:12:51.186Z,15.63
2017-11-12T00:15:18.859Z,15.00
2017-11-12T00:17:47.256Z,14.13
2017-11-12T00:20:14.861Z,15.03
2017-11-12T00:22:42.459Z,15.07
2017-11-12T00:25:10.101Z,14.87
2017-11-12T00:27:37.754Z,13.67
2017-11-12T00:30:05.393Z,15.50
2017-11-12T00:32:32.999Z,15.10
2017-11-12T00:35:01.386Z,15.17
2017-11-12T00:37:29.000Z,15.67
2017-11-12T00:39:56.611Z,13.67
2017-11-12T00:42:24.283Z,15.27
2017-11-12T00:44:51.880Z,16.87
2017-11-12T00:47:19.520Z,16.47
2017-11-12T00:49:47.872Z,15.67
2017-11-12T00:52:15.493Z,16.37
2017-11-12T00:54:43.128Z,14.73
2017-11-12T00:57:10.748Z,15.03
2017-11-12T00:59:38.385Z,15.93
2017-11-12T01:02:05.986Z,16.63
2017-11-12T01:04:33.626Z,16.07
2017-11-12T01:07:01.226Z,15.97
2017-11-12T01:09:28.848Z,16.73
2017-11-12T01:11:56.473Z,18.13
2017-11-12T01:14:24.084Z,18.00
2017-11-12T01:16:51.687Z,18.47
2017-11-12T01:19:19.324Z,16.53
2017-11-12T01:21:47.703Z,17.90
2017-11-12T01:24:15.348Z,18.93
2017-11-12T01:26:43.725Z,20.00
2017-11-12T01:29:11.357Z,18.27
2017-11-12T01:31:48.949Z,18.83
2017-11-12T01:34:16.711Z,19.03
2017-11-12T01:36:44.347Z,17.63
2017-11-12T01:39:12.009Z,17.10
2017-11-12T01:41:39.605Z,15.30
2017-11-12T01:44:08.038Z,11.10
2017-11-12T01:46:35.700Z,12.17
2017-11-12T01:49:03.320Z,14.40
2017-11-12T01:51:30.966Z,14.97
2017-11-12T01:53:58.580Z,14.83
2017-11-12T01:56:26.283Z,16.67
2017-11-12T01:58:53.971Z,14.27
2017-11-12T02:01:21.657Z,14.03
2017-11-12T02:03:49.272Z,13.40
2017-11-12T02:06:16.917Z,16.47
2017-11-12T02:08:44.512Z,18.47
2017-11-12T02:11:12.097Z,18.17
2017-11-12T02:13:40.482Z,14.83
2017-11-12T02:16:08.182Z,15.33
2017-11-12T02:18:35.801Z,17.80
2017-11-12T02:21:03.397Z,17.43
2017-11-12T02:23:31.819Z,19.37
2017-11-12T02:25:59.435Z,18.33
2017-11-12T02:28:27.071Z,15.57
2017-11-12T02:30:54.752Z,15.70
2017-11-12T02:33:22.374Z,15.97
2017-11-12T02:35:50.038Z,15.47
2017-11-12T02:38:17.642Z,16.73
2017-11-12T02:40:46.064Z,16.07
2017-11-12T02:43:13.693Z,15.00
2017-11-12T02:45:41.306Z,13.70
2017-11-12T02:48:08.918Z,17.63
2017-11-12T02:50:36.548Z,18.53
2017-11-12T02:53:04.215Z,19.83
2017-11-12T02:55:31.870Z,15.47
2017-11-12T02:57:59.545Z,17.77
2017-11-12T03:00:27.873Z,16.10
2017-11-12T03:02:55.545Z,14.40
2017-11-12T03:05:23.140Z,14.30
2017-11-12T03:07:50.759Z,14.03
2017-11-12T03:10:18.415Z,14.60
2017-11-12T03:12:45.981Z,14.93
2017-11-12T03:15:13.600Z,14.80
2017-11-12T03:17:41.359Z,14.93
2017-11-12T03:20:09.125Z,14.20
2017-11-12T03:22:36.745Z,14.63
2017-11-12T03:25:04.441Z,13.97
2017-11-12T03:27:32.220Z,12.77
2017-11-12T03:30:00.637Z,14.80
2017-11-12T03:32:28.264Z,13.90
2017-11-12T03:34:55.885Z,14.80
2017-11-12T03:37:23.525Z,14.83
2017-11-12T03:39:52.020Z,16.17
2017-11-12T03:42:22.040Z,13.33
2017-11-12T03:44:50.019Z,19.87
2017-11-12T03:47:17.946Z,21.53
2017-11-12T03:49:50.157Z,18.07
2017-11-12T03:52:17.786Z,17.73
2017-11-12T03:54:46.754Z,18.83
2017-11-12T03:57:14.547Z,20.20
2017-11-12T03:59:42.316Z,16.93
2017-11-12T04:02:09.953Z,14.93
2017-11-12T04:04:37.563Z,14.00
2017-11-12T04:07:05.183Z,14.33
2017-11-12T04:09:32.829Z,16.00
2017-11-12T04:12:00.470Z,19.30
2017-11-12T04:14:28.215Z,19.20
2017-11-12T04:16:56.359Z,18.33
2017-11-12T04:19:23.980Z,18.07
2017-11-12T04:21:51.594Z,17.50
2017-11-12T04:24:19.267Z,14.40
2017-11-12T04:26:46.871Z,15.93
2017-11-12T04:29:14.578Z,15.93
2017-11-12T04:31:42.166Z,16.23
2017-11-12T04:34:09.760Z,14.60
2017-11-12T04:36:37.379Z,15.17
2017-11-12T04:39:05.764Z,15.90
2017-11-12T04:41:33.389Z,17.30
2017-11-12T04:44:00.996Z,14.17
2017-11-12T04:46:29.699Z,14.17
2017-11-12T04:48:57.342Z,14.53
2017-11-12T04:51:24.973Z,14.67
2017-11-12T04:53:52.620Z,14.60
2017-11-12T04:56:20.235Z,13.30
2017-11-12T04:58:47.853Z,14.93
2017-11-12T05:01:15.610Z,16.93
2017-11-12T05:03:43.257Z,14.20
2017-11-12T05:06:10.858Z,16.17
2017-11-12T05:08:38.586Z,15.63
2017-11-12T05:11:06.186Z,16.10
2017-11-12T05:13:34.666Z,16.43
2017-11-12T05:16:02.423Z,18.57
2017-11-12T05:18:30.030Z,17.47
2017-11-12T05:20:57.675Z,15.77
2017-11-12T05:23:25.301Z,16.33
2017-11-12T05:25:53.584Z,15.47
2017-11-12T05:28:21.209Z,17.13
2017-11-12T05:30:48.844Z,15.53
2017-11-12T05:33:16.861Z,17.03
2017-11-12T05:35:44.461Z,17.07
2017-11-12T05:38:12.078Z,15.10
2017-11-12T05:40:39.708Z,16.97
2017-11-12T05:43:07.405Z,15.87
2017-11-12T05:45:35.023Z,15.83
2017-11-12T05:48:02.722Z,16.83
2017-11-12T05:50:30.413Z,17.50
2017-11-12T05:52:58.053Z,16.57
2017-11-12T05:55:25.704Z,17.23
2017-11-12T05:57:53.346Z,19.33
2017-11-12T06:00:21.008Z,17.73
2017-11-12T06:02:48.610Z,18.87
2017-11-12T06:05:16.235Z,17.70
2017-11-12T06:07:43.882Z,18.43
2017-11-12T06:10:11.521Z,17.63
2017-11-12T06:12:39.137Z,18.60
2017-11-12T06:15:06.765Z,17.93
2017-11-12T06:17:34.408Z,17.27
2017-11-12T06:20:05.604Z,17.27
2017-11-12T06:22:33.254Z,15.93
2017-11-12T06:25:01.664Z,16.83
2017-11-12T06:27:29.268Z,16.87
2017-11-12T06:29:57.658Z,16.23
2017-11-12T06:32:25.312Z,17.13
2017-11-12T06:34:52.943Z,17.63
2017-11-12T06:37:20.555Z,16.53
2017-11-12T06:39:48.179Z,17.47
2017-11-12T06:42:15.905Z,16.70
2017-11-12T06:44:43.504Z,15.13
2017-11-12T06:47:11.117Z,18.70
2017-11-12T06:49:38.795Z,18.90
2017-11-12T06:52:06.453Z,17.50
2017-11-12T06:54:34.845Z,18.20
2017-11-12T06:57:03.235Z,16.83
2017-11-12T06:59:30.952Z,18.90
2017-11-12T07:01:58.552Z,15.93
2017-11-12T07:04:26.165Z,18.70
2017-11-12T07:06:53.781Z,15.90
2017-11-12T07:09:21.416Z,19.10
2017-11-12T07:11:49.783Z,21.33
2017-11-12T07:14:17.377Z,20.80
2017-11-12T07:16:45.032Z,17.70
2017-11-12T07:19:12.647Z,17.03
2017-11-12T07:21:40.285Z,17.80
2017-11-12T07:24:07.921Z,17.03
2017-11-12T07:26:36.320Z,15.90
2017-11-12T07:29:03.924Z,16.73
2017-11-12T07:31:32.282Z,15.23
2017-11-12T07:33:59.892Z,16.67
2017-11-12T07:36:27.507Z,17.13
2017-11-12T07:38:55.122Z,16.03
2017-11-12T07:41:22.771Z,15.73
2017-11-12T07:43:50.435Z,18.57
2017-11-12T07:46:18.037Z,36.00
2017-11-12T07:48:46.369Z,30.93
2017-11-12T07:51:13.969Z,27.43
2017-11-12T07:53:41.623Z,24.87
2017-11-12T07:56:09.195Z,28.07
2017-11-12T07:58:36.805Z,30.37
2017-11-12T08:01:04.432Z,29.47
2017-11-12T08:03:32.098Z,27.17
2017-11-12T08:05:59.839Z,23.03
2017-11-12T08:08:27.444Z,23.13
2017-11-12T08:10:55.071Z,22.60
2017-11-12T08:13:22.709Z,24.80
2017-11-12T08:15:50.347Z,27.80
2017-11-12T08:18:22.419Z,27.40
2017-11-12T08:20:50.055Z,27.47
2017-11-12T08:23:17.683Z,45.03
2017-11-12T08:25:45.345Z,60.17
2017-11-12T08:28:13.745Z,53.03
2017-11-12T08:30:41.418Z,52.50
2017-11-12T08:33:09.035Z,34.87
2017-11-12T08:35:36.698Z,29.80
2017-11-12T08:38:04.330Z,27.30
2017-11-12T08:40:32.036Z,28.87
2017-11-12T08:43:00.441Z,25.03
2017-11-12T08:45:28.120Z,24.60
2017-11-12T08:47:55.761Z,27.47
2017-11-12T08:50:23.379Z,26.97
2017-11-12T08:52:51.051Z,28.07
2017-11-12T08:55:18.681Z,26.67
2017-11-12T08:57:46.294Z,28.47
2017-11-12T09:00:13.996Z,24.00
2017-11-12T09:02:41.602Z,22.47
2017-11-12T09:05:09.224Z,26.93
2017-11-12T09:07:37.672Z,30.33
2017-11-12T09:10:05.280Z,30.50
2017-11-12T09:12:32.923Z,22.90
2017-11-12T09:15:05.420Z,25.40
2017-11-12T09:17:33.252Z,22.97
2017-11-12T09:20:00.910Z,24.57
2017-11-12T09:22:28.672Z,23.83
2017-11-12T09:24:56.425Z,24.47
2017-11-12T09:27:24.862Z,23.70
2017-11-12T09:29:52.623Z,20.00
2017-11-12T09:32:20.261Z,20.97
2017-11-12T09:34:48.127Z,22.33
2017-11-12T09:37:16.657Z,20.03
2017-11-12T09:39:44.363Z,20.23
2017-11-12T09:42:12.099Z,19.73
2017-11-12T09:44:40.034Z,17.17
2017-11-12T09:47:07.724Z,18.13
2017-11-12T09:49:35.421Z,18.50
2017-11-12T09:52:03.093Z,19.80
2017-11-12T09:54:30.719Z,19.27
2017-11-12T09:56:58.296Z,18.70
2017-11-12T09:59:25.878Z,18.10
2017-11-12T10:01:53.671Z,17.70
2017-11-12T10:04:21.687Z,19.87
2017-11-12T10:06:49.482Z,17.70
2017-11-12T10:09:17.031Z,16.50
2017-11-12T10:11:44.745Z,16.13
2017-11-12T10:14:12.386Z,15.57
2017-11-12T10:16:40.014Z,16.67
2017-11-12T10:19:07.663Z,15.97
2017-11-12T10:21:35.328Z,16.53
2017-11-12T10:24:02.957Z,15.53
2017-11-12T10:26:30.625Z,12.10
2017-11-12T10:28:58.217Z,13.50
2017-11-12T10:31:26.630Z,12.83
2017-11-12T10:33:54.239Z,11.00
2017-11-12T10:36:22.955Z,11.37
2017-11-12T10:38:50.709Z,11.03
2017-11-12T10:41:18.648Z,9.53
2017-11-12T10:43:46.261Z,10.57
2017-11-12T10:46:14.696Z,8.67
2017-11-12T10:48:42.676Z,8.87
2017-11-12T10:51:10.383Z,6.67
2017-11-12T10:53:38.068Z,7.67
2017-11-12T10:56:06.445Z,6.53
2017-11-12T10:58:34.059Z,8.20
2017-11-12T11:01:01.680Z,7.20
2017-11-12T11:03:29.298Z,6.70
2017-11-12T11:05:56.968Z,9.33
2017-11-12T11:08:24.616Z,12.27
2017-11-12T11:10:52.252Z,8.00
2017-11-12T11:13:19.877Z,6.07
2017-11-12T11:15:47.445Z,6.33
2017-11-12T11:18:15.192Z,5.67
2017-11-12T11:20:43.131Z,7.07
2017-11-12T11:23:10.789Z,7.80
2017-11-12T11:25:38.316Z,6.90
2017-11-12T11:28:06.620Z,5.07
2017-11-12T11:30:34.727Z,4.77
2017-11-12T11:33:02.310Z,5.40
2017-11-12T11:35:29.838Z,5.17
2017-11-12T11:37:57.689Z,4.80
2017-11-12T11:40:25.317Z,6.33
2017-11-12T11:42:54.719Z,5.10
2017-11-12T11:45:23.501Z,3.57
2017-11-12T11:47:51.242Z,4.27
2017-11-12T11:50:20.018Z,3.40
2017-11-12T11:52:47.680Z,4.00
2017-11-12T11:55:15.269Z,3.80
2017-11-12T11:57:42.832Z,3.87
2017-11-12T12:00:10.658Z,4.10
2017-11-12T12:02:38.578Z,4.60
2017-11-12T12:05:06.315Z,4.73
2017-11-12T12:07:34.113Z,5.43
2017-11-12T12:10:01.682Z,6.03
2017-11-12T12:12:29.377Z,4.43
2017-11-12T12:14:57.206Z,5.27
2017-11-12T12:17:25.157Z,5.70
2017-11-12T12:19:53.133Z,7.40
2017-11-12T12:22:20.900Z,6.03
2017-11-12T12:24:48.810Z,6.80
2017-11-12T12:27:17.589Z,6.13
2017-11-12T12:29:45.459Z,6.57
2017-11-12T12:32:13.280Z,7.00
2017-11-12T12:34:41.572Z,6.10
2017-11-12T12:37:09.505Z,5.57
2017-11-12T12:39:37.371Z,6.47
2017-11-12T12:42:05.766Z,5.37
2017-11-12T12:44:33.599Z,4.90
2017-11-12T12:47:01.571Z,4.80
2017-11-12T12:49:30.299Z,4.07
2017-11-12T12:51:58.150Z,7.67
2017-11-12T12:54:29.024Z,10.27
2017-11-12T12:56:57.880Z,8.63
2017-11-12T12:59:27.855Z,8.60
2017-11-12T13:01:57.616Z,6.07
2017-11-12T13:04:27.137Z,5.30
2017-11-12T13:06:56.569Z,4.87
2017-11-12T13:09:25.844Z,5.07
2017-11-12T13:11:53.882Z,5.30
2017-11-12T13:14:21.882Z,5.37
2017-11-12T13:16:50.276Z,4.93
2017-11-12T13:19:18.529Z,5.20
2017-11-12T13:21:46.580Z,5.60
2017-11-12T13:24:14.636Z,4.23
2017-11-12T13:26:42.722Z,4.40
2017-11-12T13:29:10.561Z,4.77
2017-11-12T13:31:38.512Z,5.70
2017-11-12T13:34:07.199Z,4.70
2017-11-12T13:36:35.127Z,4.50
2017-11-12T13:39:03.264Z,4.80
2017-11-12T13:41:31.500Z,3.50
2017-11-12T13:43:59.464Z,3.97
2017-11-12T13:46:27.927Z,4.37
2017-11-12T13:48:55.824Z,4.30
2017-11-12T13:51:23.539Z,3.40
2017-11-12T13:53:51.188Z,3.20
2017-11-12T13:56:19.151Z,3.03
2017-11-12T13:58:46.979Z,3.07
2017-11-12T14:01:14.822Z,3.00
2017-11-12T14:03:42.755Z,2.47
2017-11-12T14:06:10.444Z,2.63
2017-11-12T14:08:38.144Z,2.50
2017-11-12T14:11:05.952Z,1.93
2017-11-12T14:13:33.934Z,1.37
2017-11-12T14:16:02.617Z,1.63
2017-11-12T14:18:31.491Z,1.90
2017-11-12T14:20:59.681Z,2.80
2017-11-12T14:23:27.670Z,3.13
2017-11-12T14:25:56.305Z,2.10
2017-11-12T14:28:23.888Z,3.87
2017-11-12T14:30:51.837Z,5.27
2017-11-12T14:33:20.091Z,7.97
2017-11-12T14:35:48.003Z,5.43
2017-11-12T14:38:15.829Z,4.27
2017-11-12T14:40:43.732Z,5.20
2017-11-12T14:43:11.805Z,4.50
2017-11-12T14:45:39.825Z,2.83
2017-11-12T14:48:07.950Z,6.97
2017-11-12T14:50:35.937Z,9.50
2017-11-12T14:53:03.872Z,11.47
2017-11-12T14:55:31.875Z,8.13
2017-11-12T14:57:59.887Z,7.23
2017-11-12T15:00:27.458Z,7.27
2017-11-12T15:02:55.392Z,5.90
2017-11-12T15:05:23.291Z,6.50
2017-11-12T15:07:51.187Z,7.53
2017-11-12T15:10:18.910Z,11.20
2017-11-12T15:12:46.661Z,4.50
2017-11-12T15:15:14.183Z,4.97
2017-11-12T15:17:41.721Z,4.60
2017-11-12T15:20:09.317Z,7.87
2017-11-12T15:22:36.891Z,7.10
2017-11-12T15:25:04.448Z,12.10
2017-11-12T15:27:31.973Z,15.40
2017-11-12T15:29:59.529Z,15.30
2017-11-12T15:32:27.044Z,9.00
2017-11-12T15:34:54.883Z,9.63
2017-11-12T15:37:23.188Z,10.03
2017-11-12T15:39:51.104Z,8.90
2017-11-12T15:42:18.753Z,5.57
2017-11-12T15:44:46.291Z,5.10
2017-11-12T15:47:13.849Z,7.20
2017-11-12T15:49:41.386Z,6.53
2017-11-12T15:52:10.826Z,12.93
2017-11-12T15:54:39.520Z,12.40
2017-11-12T15:57:08.746Z,8.70
2017-11-12T15:59:36.591Z,8.90
2017-11-12T16:02:04.886Z,7.37
2017-11-12T16:04:33.709Z,6.03
2017-11-12T16:07:03.784Z,7.63
2017-11-12T16:09:31.732Z,9.00
2017-11-12T16:12:02.635Z,9.67
2017-11-12T16:14:32.419Z,6.57
2017-11-12T16:17:00.841Z,6.70
2017-11-12T16:19:30.117Z,7.30
2017-11-12T16:21:57.735Z,6.67
2017-11-12T16:24:25.753Z,7.83
2017-11-12T16:26:54.105Z,7.03
2017-11-12T16:29:22.101Z,6.77
2017-11-12T16:31:53.146Z,9.23
2017-11-12T16:34:21.272Z,8.33
2017-11-12T16:36:49.019Z,9.80
2017-11-12T16:39:16.743Z,11.73
2017-11-12T16:41:45.490Z,9.37
2017-11-12T16:44:13.249Z,9.33
2017-11-12T16:46:40.885Z,7.80
2017-11-12T16:49:09.379Z,7.67
2017-11-12T16:51:37.606Z,4.90
2017-11-12T16:54:05.997Z,5.27
2017-11-12T16:56:33.810Z,5.13
2017-11-12T16:59:01.424Z,5.30
2017-11-12T17:01:29.081Z,5.47
2017-11-12T17:03:57.033Z,5.37
2017-11-12T17:06:24.801Z,6.13
2017-11-12T17:08:53.513Z,5.10
2017-11-12T17:11:21.395Z,5.67
2017-11-12T17:13:50.302Z,4.80
2017-11-12T17:16:18.857Z,4.10
2017-11-12T17:18:46.495Z,4.97
2017-11-12T17:21:14.117Z,4.67
2017-11-12T17:23:42.094Z,4.80
2017-11-12T17:26:10.025Z,4.63
2017-11-12T17:28:38.207Z,3.77
2017-11-12T17:31:07.212Z,4.33
2017-11-12T17:33:35.463Z,3.90
2017-11-12T17:36:03.445Z,4.23
2017-11-12T17:38:31.407Z,4.60
2017-11-12T17:40:59.215Z,3.63
2017-11-12T17:43:27.540Z,3.60
2017-11-12T17:45:55.907Z,3.70
2017-11-12T17:48:23.685Z,3.87
2017-11-12T17:50:52.439Z,3.87
2017-11-12T17:53:20.394Z,3.37
2017-11-12T17:55:48.519Z,3.73
2017-11-12T17:58:16.627Z,4.07
2017-11-12T18:00:44.485Z,3.83
2017-11-12T18:03:12.370Z,3.30
2017-11-12T18:05:40.387Z,3.03
2017-11-12T18:08:08.415Z,3.40
2017-11-12T18:10:36.195Z,3.23
2017-11-12T18:13:04.217Z,2.40
2017-11-12T18:15:32.196Z,3.23
2017-11-12T18:18:00.422Z,2.30
2017-11-12T18:20:29.407Z,2.57
2017-11-12T18:22:57.979Z,3.07
2017-11-12T18:25:26.120Z,3.80
2017-11-12T18:27:54.443Z,3.90
2017-11-12T18:30:22.572Z,4.30
2017-11-12T18:32:56.602Z,4.90
2017-11-12T18:35:25.480Z,4.73
2017-11-12T18:37:53.554Z,4.63
2017-11-12T18:40:21.732Z,3.73
2017-11-12T18:42:50.166Z,3.50
2017-11-12T18:45:18.973Z,3.17
2017-11-12T18:47:47.427Z,3.13
2017-11-12T18:50:15.487Z,3.07
2017-11-12T18:52:44.393Z,3.13
2017-11-12T18:55:12.553Z,3.53
2017-11-12T18:57:42.839Z,4.93
2017-11-12T19:03:32.453Z,3.63
2017-11-12T19:09:32.743Z,2.10
2017-11-12T19:15:12.493Z,2.60
2017-11-12T19:17:50.191Z,2.70
2017-11-12T19:20:22.427Z,2.40
2017-11-12T19:23:05.012Z,3.00
2017-11-12T19:25:36.348Z,2.70
2017-11-12T19:28:09.067Z,2.80
2017-11-12T19:30:36.918Z,3.50
2017-11-12T19:33:04.584Z,4.93
2017-11-12T19:35:33.130Z,4.07
2017-11-12T19:38:01.618Z,4.53
2017-11-12T19:40:29.407Z,3.77
2017-11-12T19:42:57.069Z,3.93
2017-11-12T19:45:24.750Z,4.70
2017-11-12T19:47:53.173Z,4.00
2017-11-12T19:50:27.937Z,4.03
2017-11-12T19:52:56.926Z,4.17
2017-11-12T19:55:25.314Z,4.20
2017-11-12T19:57:52.896Z,4.50
2017-11-12T20:00:21.260Z,5.30
2017-11-12T20:02:48.865Z,5.63
2017-11-12T20:05:16.575Z,6.53
2017-11-12T20:07:44.188Z,4.00
2017-11-12T20:10:18.385Z,4.10
2017-11-12T20:12:46.220Z,3.60
2017-11-12T20:15:13.836Z,3.10
2017-11-12T20:17:41.450Z,4.17
2017-11-12T20:20:09.052Z,4.00
2017-11-12T20:22:36.678Z,3.93
2017-11-12T20:25:04.288Z,3.87
2017-11-12T20:27:31.885Z,4.57
2017-11-12T20:29:59.501Z,6.50
2017-11-12T20:32:28.794Z,5.97
2017-11-12T20:34:56.420Z,5.13
2017-11-12T20:37:24.804Z,5.07
2017-11-12T20:39:52.721Z,8.40
2017-11-12T20:42:20.310Z,7.70
2017-11-12T20:44:52.559Z,6.87
2017-11-12T20:47:21.047Z,6.20
2017-11-12T20:50:01.302Z,6.80
2017-11-12T20:52:30.095Z,6.50
2017-11-12T20:55:11.701Z,5.43
2017-11-12T20:57:40.645Z,7.50
2017-11-12T21:00:09.702Z,7.10
2017-11-12T21:02:38.806Z,6.03
2017-11-12T21:05:09.547Z,4.87
2017-11-12T21:07:38.067Z,4.93
2017-11-12T21:10:05.583Z,5.07
2017-11-12T21:12:33.889Z,5.33
2017-11-12T21:15:01.459Z,5.57
2017-11-12T21:17:28.980Z,5.43
2017-11-12T21:23:16.104Z,5.60
2017-11-12T21:25:43.662Z,4.90
2017-11-12T21:28:26.843Z,5.43
2017-11-12T21:30:56.499Z,4.53
2017-11-12T21:33:26.666Z,4.60
2017-11-12T21:35:56.629Z,4.37
2017-11-12T21:38:24.438Z,5.20
2017-11-12T21:40:52.711Z,4.87
2017-11-12T21:43:21.101Z,5.23
2017-11-12T21:45:48.801Z,4.60
2017-11-12T21:48:16.425Z,5.43
2017-11-12T21:50:45.144Z,4.97
2017-11-12T21:53:14.373Z,5.80
2017-11-12T21:55:43.422Z,5.00
2017-11-12T21:58:11.815Z,5.53
2017-11-12T22:00:39.697Z,5.80
2017-11-12T22:03:07.685Z,5.20
2017-11-12T22:05:35.274Z,4.57
2017-11-12T22:08:02.900Z,5.60
2017-11-12T22:10:30.547Z,4.93
2017-11-12T22:12:58.265Z,5.23
2017-11-12T22:15:27.350Z,5.67
2017-11-12T22:17:55.046Z,5.60
2017-11-12T22:20:22.728Z,5.77
2017-11-12T22:22:50.383Z,5.47
2017-11-12T22:25:17.997Z,4.43
2017-11-12T22:27:46.395Z,4.43
2017-11-12T22:30:13.998Z,5.23
2017-11-12T22:32:42.368Z,5.33
2017-11-12T22:35:09.951Z,5.23
2017-11-12T22:37:37.606Z,4.63
2017-11-12T22:40:05.265Z,4.77
2017-11-12T22:42:33.828Z,4.40
2017-11-12T22:45:01.484Z,3.90
2017-11-12T22:47:29.235Z,4.80
2017-11-12T22:49:56.861Z,4.30
2017-11-12T22:52:24.456Z,5.10
2017-11-12T22:54:52.105Z,3.97
2017-11-12T22:57:19.700Z,4.53
2017-11-12T22:59:47.345Z,5.83
2017-11-12T23:02:15.874Z,5.00
2017-11-12T23:04:43.569Z,4.77
2017-11-12T23:07:11.215Z,4.80
2017-11-12T23:09:38.836Z,5.53
2017-11-12T23:12:06.477Z,5.00
2017-11-12T23:14:34.937Z,5.17
2017-11-12T23:17:03.332Z,5.00
2017-11-12T23:19:30.999Z,4.93
2017-11-12T23:21:58.645Z,5.03
2017-11-12T23:24:28.575Z,3.93
2017-11-12T23:26:56.163Z,5.00
2017-11-12T23:29:23.894Z,5.40
2017-11-12T23:31:51.561Z,5.37
2017-11-12T23:34:19.165Z,5.43
2017-11-12T23:36:49.431Z,5.53
2017-11-12T23:39:17.120Z,6.23
2017-11-12T23:41:44.750Z,6.47
2017-11-12T23:44:12.416Z,6.63
2017-11-12T23:46:40.079Z,6.60
2017-11-12T23:49:07.696Z,6.30
2017-11-12T23:51:35.296Z,6.20
2017-11-12T23:54:02.965Z,5.90
2017-11-12T23:56:30.571Z,6.93
2017-11-12T23:58:58.146Z,6.27
